Terminal Aerodrome Forecast
Issued by NWS Wakefield, VA

Home | Current Version | Previous Version | Text Only | Print | Product List | Glossary On
Versions: 1 2 3 4 5 6 7 8 9 10 11 12 13 14 15 16 17 18 19 20
000
FTUS41 KAKQ 230531
TAFRIC
TAF
KRIC 230531Z 2306/2406 00000KT P6SM BKN050
      TEMPO 2307/2309 BKN015
     FM230900 05005KT 4SM BR OVC007
     FM231200 04006KT 4SM BR VCSH OVC007
     FM231400 06005KT 2SM RA OVC007
     FM232300 05007KT 4SM -SHRA OVC006=

USA.gov is the U.S. government's official web portal to all federal, state and local government web resources and services.